WPU weather

Guardiamarina ZaƱartu Airport
Puerto Williams, Magallanes Region, Chile

Public forecast

Using degrees Celsius for public forecast. Weather courtesy of forecast.io.

METAR (pilot weather report)

Report is more than 6 hours old.

Retrieved 2019/09/15 03:00 UTC (10 hours ago):

SCGZ 150300Z 24005KT 9999 FEW050 SCT070 BKN076 03/02 Q0993

TAF (pilot weather forecast)

Closest forecast is Malvinas Argentinas Airport, 23.7 nm (43.9 km) WNW. Retrieved 2019/09/15 12:06 UTC (47 minutes ago):

TAF SAWH 151100Z 1512/1612 20020KT 5000 RASN BKN015 BKN020 TX01/1519Z TNM03/1610Z TEMPO 1512/1515 3000 +SHSN OVC005 BECMG 1517/1519 27010KT 9999 BKN025 BECMG 1600/1602 VRB07KT TEMPO 1606/1611 3000 SN